sensor_id;sensor_type;location;lat;lon;timestamp;P1;durP1;ratioP1;P2;durP2;ratioP2
11098;SDS011;12223;42.650;23.364;2023-01-01T00:00:11;150.37;;;90.07;;
11098;SDS011;12223;42.650;23.364;2023-01-01T00:02:38;159.07;;;98.47;;
11098;SDS011;12223;42.650;23.364;2023-01-01T00:05:05;162.60;;;95.03;;
11098;SDS011;12223;42.650;23.364;2023-01-01T00:07:32;170.60;;;107.73;;
11098;SDS011;12223;42.650;23.364;2023-01-01T00:09:59;174.27;;;107.30;;
11098;SDS011;12223;42.650;23.364;2023-01-01T00:12:55;157.30;;;107.20;;
11098;SDS011;12223;42.650;23.364;2023-01-01T00:15:23;153.63;;;102.67;;
11098;SDS011;12223;42.650;23.364;2023-01-01T00:17:50;151.17;;;111.37;;
11098;SDS011;12223;42.650;23.364;2023-01-01T00:20:17;158.80;;;93.27;;
11098;SDS011;12223;42.650;23.364;2023-01-01T00:22:45;154.63;;;91.20;;
11098;SDS011;12223;42.650;23.364;2023-01-01T00:25:11;159.07;;;99.43;;
11098;SDS011;12223;42.650;23.364;2023-01-01T00:27:39;152.53;;;92.37;;
11098;SDS011;12223;42.650;23.364;2023-01-01T00:30:06;153.57;;;92.83;;
11098;SDS011;12223;42.650;23.364;2023-01-01T00:32:36;147.40;;;87.43;;
11098;SDS011;12223;42.650;23.364;2023-01-01T00:35:02;147.17;;;85.87;;
11098;SDS011;12223;42.650;23.364;2023-01-01T00:37:30;144.00;;;88.83;;
11098;SDS011;12223;42.650;23.364;2023-01-01T00:39:56;152.63;;;91.33;;
11098;SDS011;12223;42.650;23.364;2023-01-01T00:42:23;150.17;;;89.40;;
11098;SDS011;12223;42.650;23.364;2023-01-01T00:44:50;152.07;;;90.17;;
11098;SDS011;12223;42.650;23.364;2023-01-01T00:47:17;133.77;;;85.60;;
11098;SDS011;12223;42.650;23.364;2023-01-01T00:49:45;134.20;;;96.20;;
11098;SDS011;12223;42.650;23.364;2023-01-01T00:52:12;127.03;;;91.50;;
11098;SDS011;12223;42.650;23.364;2023-01-01T00:54:38;115.67;;;84.13;;
11098;SDS011;12223;42.650;23.364;2023-01-01T00:57:05;119.73;;;85.87;;
11098;SDS011;12223;42.650;23.364;2023-01-01T00:59:32;110.00;;;76.23;;
11098;SDS011;12223;42.650;23.364;2023-01-01T01:01:59;101.63;;;63.57;;
11098;SDS011;12223;42.650;23.364;2023-01-01T01:04:25;78.23;;;55.63;;
11098;SDS011;12223;42.650;23.364;2023-01-01T01:06:53;82.17;;;50.87;;
11098;SDS011;12223;42.650;23.364;2023-01-01T01:09:20;65.27;;;42.07;;
11098;SDS011;12223;42.650;23.364;2023-01-01T01:11:47;65.60;;;45.13;;
11098;SDS011;12223;42.650;23.364;2023-01-01T01:14:14;78.47;;;48.07;;
11098;SDS011;12223;42.650;23.364;2023-01-01T01:16:40;82.27;;;48.17;;
11098;SDS011;12223;42.650;23.364;2023-01-01T01:19:07;80.03;;;47.73;;
11098;SDS011;12223;42.650;23.364;2023-01-01T01:21:39;71.77;;;45.60;;
11098;SDS011;12223;42.650;23.364;2023-01-01T01:24:08;71.40;;;44.37;;
11098;SDS011;12223;42.650;23.364;2023-01-01T01:26:35;73.10;;;46.13;;
11098;SDS011;12223;42.650;23.364;2023-01-01T01:29:02;87.13;;;55.70;;
11098;SDS011;12223;42.650;23.364;2023-01-01T01:31:30;83.17;;;50.23;;
11098;SDS011;12223;42.650;23.364;2023-01-01T01:33:58;87.90;;;51.83;;
11098;SDS011;12223;42.650;23.364;2023-01-01T01:36:26;83.33;;;52.80;;
11098;SDS011;12223;42.650;23.364;2023-01-01T01:38:53;91.80;;;55.70;;
11098;SDS011;12223;42.650;23.364;2023-01-01T01:41:22;87.87;;;53.50;;
11098;SDS011;12223;42.650;23.364;2023-01-01T01:43:52;105.13;;;57.47;;
11098;SDS011;12223;42.650;23.364;2023-01-01T01:46:22;103.30;;;61.83;;
11098;SDS011;12223;42.650;23.364;2023-01-01T01:48:54;103.80;;;60.57;;
11098;SDS011;12223;42.650;23.364;2023-01-01T01:51:25;92.00;;;56.30;;
11098;SDS011;12223;42.650;23.364;2023-01-01T01:53:56;83.83;;;48.60;;
11098;SDS011;12223;42.650;23.364;2023-01-01T01:56:30;87.07;;;54.10;;
11098;SDS011;12223;42.650;23.364;2023-01-01T01:59:04;84.63;;;54.23;;
11098;SDS011;12223;42.650;23.364;2023-01-01T02:01:31;95.63;;;56.40;;
11098;SDS011;12223;42.650;23.364;2023-01-01T02:03:58;98.77;;;57.87;;
11098;SDS011;12223;42.650;23.364;2023-01-01T02:06:27;96.07;;;59.03;;
11098;SDS011;12223;42.650;23.364;2023-01-01T02:08:55;101.10;;;62.10;;
11098;SDS011;12223;42.650;23.364;2023-01-01T02:11:23;104.57;;;61.10;;
11098;SDS011;12223;42.650;23.364;2023-01-01T02:13:52;106.27;;;62.70;;
11098;SDS011;12223;42.650;23.364;2023-01-01T02:16:21;99.83;;;58.77;;
11098;SDS011;12223;42.650;23.364;2023-01-01T02:18:56;109.40;;;65.87;;
11098;SDS011;12223;42.650;23.364;2023-01-01T02:21:29;95.47;;;57.63;;
11098;SDS011;12223;42.650;23.364;2023-01-01T02:24:14;97.60;;;60.03;;
11098;SDS011;12223;42.650;23.364;2023-01-01T02:26:57;95.40;;;57.87;;
11098;SDS011;12223;42.650;23.364;2023-01-01T02:29:30;87.23;;;55.47;;
11098;SDS011;12223;42.650;23.364;2023-01-01T02:32:04;98.20;;;58.37;;
11098;SDS011;12223;42.650;23.364;2023-01-01T02:34:35;100.07;;;65.73;;
11098;SDS011;12223;42.650;23.364;2023-01-01T02:37:06;102.03;;;60.07;;
11098;SDS011;12223;42.650;23.364;2023-01-01T02:39:38;82.83;;;51.43;;
11098;SDS011;12223;42.650;23.364;2023-01-01T02:42:11;92.47;;;57.87;;
11098;SDS011;12223;42.650;23.364;2023-01-01T02:44:40;102.17;;;59.20;;
11098;SDS011;12223;42.650;23.364;2023-01-01T02:47:11;98.90;;;59.30;;
11098;SDS011;12223;42.650;23.364;2023-01-01T02:49:41;95.97;;;55.67;;
11098;SDS011;12223;42.650;23.364;2023-01-01T02:52:17;95.00;;;55.13;;
11098;SDS011;12223;42.650;23.364;2023-01-01T02:54:58;106.97;;;61.77;;
11098;SDS011;12223;42.650;23.364;2023-01-01T02:57:33;94.27;;;58.77;;
11098;SDS011;12223;42.650;23.364;2023-01-01T03:00:08;104.20;;;64.73;;
11098;SDS011;12223;42.650;23.364;2023-01-01T03:02:46;103.30;;;61.13;;
11098;SDS011;12223;42.650;23.364;2023-01-01T03:05:23;97.47;;;58.60;;
11098;SDS011;12223;42.650;23.364;2023-01-01T03:07:59;94.73;;;59.30;;
11098;SDS011;12223;42.650;23.364;2023-01-01T03:10:35;94.93;;;55.77;;
11098;SDS011;12223;42.650;23.364;2023-01-01T03:13:08;94.47;;;60.47;;
11098;SDS011;12223;42.650;23.364;2023-01-01T03:15:42;94.80;;;59.23;;
11098;SDS011;12223;42.650;23.364;2023-01-01T03:18:13;89.27;;;53.07;;
11098;SDS011;12223;42.650;23.364;2023-01-01T03:20:45;98.97;;;65.37;;
11098;SDS011;12223;42.650;23.364;2023-01-01T03:23:17;101.67;;;58.47;;
11098;SDS011;12223;42.650;23.364;2023-01-01T03:25:49;103.47;;;67.03;;
11098;SDS011;12223;42.650;23.364;2023-01-01T03:28:19;104.00;;;69.17;;
11098;SDS011;12223;42.650;23.364;2023-01-01T03:30:52;100.37;;;63.83;;
11098;SDS011;12223;42.650;23.364;2023-01-01T03:33:22;103.80;;;83.00;;
11098;SDS011;12223;42.650;23.364;2023-01-01T03:35:53;92.47;;;66.80;;
11098;SDS011;12223;42.650;23.364;2023-01-01T03:38:25;88.77;;;57.47;;
11098;SDS011;12223;42.650;23.364;2023-01-01T03:40:59;79.50;;;54.87;;
11098;SDS011;12223;42.650;23.364;2023-01-01T03:43:30;81.40;;;54.60;;
11098;SDS011;12223;42.650;23.364;2023-01-01T03:46:07;85.97;;;54.30;;
11098;SDS011;12223;42.650;23.364;2023-01-01T03:48:37;86.13;;;57.40;;
11098;SDS011;12223;42.650;23.364;2023-01-01T03:51:20;88.50;;;54.33;;
11098;SDS011;12223;42.650;23.364;2023-01-01T03:53:52;96.50;;;61.50;;
11098;SDS011;12223;42.650;23.364;2023-01-01T03:56:25;97.93;;;67.20;;
11098;SDS011;12223;42.650;23.364;2023-01-01T03:58:59;93.90;;;58.00;;
11098;SDS011;12223;42.650;23.364;2023-01-01T04:01:34;88.93;;;58.90;;
11098;SDS011;12223;42.650;23.364;2023-01-01T04:04:05;89.37;;;56.87;;
11098;SDS011;12223;42.650;23.364;2023-01-01T04:06:33;88.97;;;55.33;;
11098;SDS011;12223;42.650;23.364;2023-01-01T04:09:00;84.30;;;47.97;;
11098;SDS011;12223;42.650;23.364;2023-01-01T04:11:30;82.03;;;53.03;;
11098;SDS011;12223;42.650;23.364;2023-01-01T04:14:24;85.90;;;64.63;;
11098;SDS011;12223;42.650;23.364;2023-01-01T04:16:53;80.17;;;51.40;;
11098;SDS011;12223;42.650;23.364;2023-01-01T04:19:20;77.17;;;54.53;;
11098;SDS011;12223;42.650;23.364;2023-01-01T04:21:47;93.77;;;77.97;;
11098;SDS011;12223;42.650;23.364;2023-01-01T04:24:14;82.30;;;56.83;;
11098;SDS011;12223;42.650;23.364;2023-01-01T04:26:41;81.03;;;58.30;;
11098;SDS011;12223;42.650;23.364;2023-01-01T04:29:07;87.77;;;54.17;;
11098;SDS011;12223;42.650;23.364;2023-01-01T04:31:34;81.10;;;52.40;;
11098;SDS011;12223;42.650;23.364;2023-01-01T04:34:02;80.83;;;62.87;;
11098;SDS011;12223;42.650;23.364;2023-01-01T04:36:29;85.20;;;65.37;;
11098;SDS011;12223;42.650;23.364;2023-01-01T04:38:56;76.67;;;53.97;;
11098;SDS011;12223;42.650;23.364;2023-01-01T04:41:23;71.33;;;44.77;;
11098;SDS011;12223;42.650;23.364;2023-01-01T04:43:50;76.43;;;48.63;;
11098;SDS011;12223;42.650;23.364;2023-01-01T04:46:17;76.90;;;55.77;;
11098;SDS011;12223;42.650;23.364;2023-01-01T04:48:44;81.87;;;52.43;;
11098;SDS011;12223;42.650;23.364;2023-01-01T04:51:13;84.03;;;55.47;;
11098;SDS011;12223;42.650;23.364;2023-01-01T04:53:41;79.17;;;59.63;;
11098;SDS011;12223;42.650;23.364;2023-01-01T04:56:09;81.60;;;53.13;;
11098;SDS011;12223;42.650;23.364;2023-01-01T04:58:38;80.63;;;53.07;;
11098;SDS011;12223;42.650;23.364;2023-01-01T05:01:05;88.50;;;53.37;;
11098;SDS011;12223;42.650;23.364;2023-01-01T05:03:33;81.30;;;68.00;;
11098;SDS011;12223;42.650;23.364;2023-01-01T05:06:00;86.60;;;76.47;;
11098;SDS011;12223;42.650;23.364;2023-01-01T05:08:29;100.13;;;90.40;;
11098;SDS011;12223;42.650;23.364;2023-01-01T05:10:59;140.13;;;127.77;;
11098;SDS011;12223;42.650;23.364;2023-01-01T05:13:26;164.50;;;150.60;;
11098;SDS011;12223;42.650;23.364;2023-01-01T05:15:53;165.87;;;152.37;;
11098;SDS011;12223;42.650;23.364;2023-01-01T05:18:20;145.67;;;132.83;;
11098;SDS011;12223;42.650;23.364;2023-01-01T05:20:47;153.60;;;140.57;;
11098;SDS011;12223;42.650;23.364;2023-01-01T05:23:14;141.43;;;129.83;;
11098;SDS011;12223;42.650;23.364;2023-01-01T05:25:43;95.40;;;85.03;;
11098;SDS011;12223;42.650;23.364;2023-01-01T05:28:10;88.17;;;55.37;;
11098;SDS011;12223;42.650;23.364;2023-01-01T05:30:37;96.10;;;59.33;;
11098;SDS011;12223;42.650;23.364;2023-01-01T05:33:05;80.87;;;60.23;;
11098;SDS011;12223;42.650;23.364;2023-01-01T05:35:32;90.67;;;64.60;;
11098;SDS011;12223;42.650;23.364;2023-01-01T05:37:59;92.07;;;72.43;;
11098;SDS011;12223;42.650;23.364;2023-01-01T05:40:25;89.87;;;57.90;;
11098;SDS011;12223;42.650;23.364;2023-01-01T05:42:54;79.37;;;62.20;;
11098;SDS011;12223;42.650;23.364;2023-01-01T05:45:20;88.20;;;57.97;;
11098;SDS011;12223;42.650;23.364;2023-01-01T05:47:47;84.53;;;57.13;;
11098;SDS011;12223;42.650;23.364;2023-01-01T05:50:14;89.63;;;57.67;;
11098;SDS011;12223;42.650;23.364;2023-01-01T05:52:41;81.20;;;55.60;;
11098;SDS011;12223;42.650;23.364;2023-01-01T05:55:07;84.30;;;51.50;;
11098;SDS011;12223;42.650;23.364;2023-01-01T05:57:34;92.93;;;54.97;;
11098;SDS011;12223;42.650;23.364;2023-01-01T06:00:03;85.37;;;52.87;;
11098;SDS011;12223;42.650;23.364;2023-01-01T06:02:30;83.57;;;48.27;;
11098;SDS011;12223;42.650;23.364;2023-01-01T06:04:57;86.63;;;48.60;;
11098;SDS011;12223;42.650;23.364;2023-01-01T06:07:24;95.97;;;52.27;;
11098;SDS011;12223;42.650;23.364;2023-01-01T06:09:50;86.50;;;50.17;;
11098;SDS011;12223;42.650;23.364;2023-01-01T06:12:17;81.23;;;50.07;;
11098;SDS011;12223;42.650;23.364;2023-01-01T06:14:44;87.83;;;54.23;;
11098;SDS011;12223;42.650;23.364;2023-01-01T06:17:12;86.83;;;50.63;;
11098;SDS011;12223;42.650;23.364;2023-01-01T06:19:39;87.57;;;49.97;;
11098;SDS011;12223;42.650;23.364;2023-01-01T06:22:05;92.43;;;59.67;;
11098;SDS011;12223;42.650;23.364;2023-01-01T06:24:32;80.47;;;51.37;;
11098;SDS011;12223;42.650;23.364;2023-01-01T06:26:59;81.47;;;49.27;;
11098;SDS011;12223;42.650;23.364;2023-01-01T06:29:25;80.20;;;50.83;;
11098;SDS011;12223;42.650;23.364;2023-01-01T06:31:52;60.10;;;43.97;;
11098;SDS011;12223;42.650;23.364;2023-01-01T06:34:20;61.67;;;43.00;;
11098;SDS011;12223;42.650;23.364;2023-01-01T06:36:47;53.87;;;40.43;;
11098;SDS011;12223;42.650;23.364;2023-01-01T06:39:14;53.67;;;35.50;;
11098;SDS011;12223;42.650;23.364;2023-01-01T06:41:40;48.57;;;33.63;;
11098;SDS011;12223;42.650;23.364;2023-01-01T06:44:07;48.57;;;35.70;;
11098;SDS011;12223;42.650;23.364;2023-01-01T06:46:34;47.00;;;35.88;;
11098;SDS011;12223;42.650;23.364;2023-01-01T06:49:02;50.22;;;35.20;;
11098;SDS011;12223;42.650;23.364;2023-01-01T06:51:32;73.85;;;53.30;;
11098;SDS011;12223;42.650;23.364;2023-01-01T06:54:02;61.35;;;46.22;;
11098;SDS011;12223;42.650;23.364;2023-01-01T06:56:30;51.33;;;39.45;;
11098;SDS011;12223;42.650;23.364;2023-01-01T06:58:57;44.58;;;35.00;;
11098;SDS011;12223;42.650;23.364;2023-01-01T07:01:24;41.33;;;33.72;;
11098;SDS011;12223;42.650;23.364;2023-01-01T07:03:53;41.33;;;32.70;;
11098;SDS011;12223;42.650;23.364;2023-01-01T07:06:20;43.63;;;34.70;;
11098;SDS011;12223;42.650;23.364;2023-01-01T07:08:49;42.33;;;34.97;;
11098;SDS011;12223;42.650;23.364;2023-01-01T07:11:16;50.13;;;45.17;;
11098;SDS011;12223;42.650;23.364;2023-01-01T07:13:43;45.30;;;40.93;;
11098;SDS011;12223;42.650;23.364;2023-01-01T07:16:10;39.53;;;35.20;;
11098;SDS011;12223;42.650;23.364;2023-01-01T07:18:37;35.03;;;28.00;;
11098;SDS011;12223;42.650;23.364;2023-01-01T07:21:04;34.40;;;27.10;;
11098;SDS011;12223;42.650;23.364;2023-01-01T07:23:33;35.73;;;31.23;;
11098;SDS011;12223;42.650;23.364;2023-01-01T07:26:02;39.97;;;33.73;;
11098;SDS011;12223;42.650;23.364;2023-01-01T07:28:29;38.95;;;27.55;;
11098;SDS011;12223;42.650;23.364;2023-01-01T07:30:55;28.02;;;22.90;;
11098;SDS011;12223;42.650;23.364;2023-01-01T07:33:22;25.95;;;22.30;;
11098;SDS011;12223;42.650;23.364;2023-01-01T07:35:49;24.58;;;21.95;;
11098;SDS011;12223;42.650;23.364;2023-01-01T07:38:16;24.20;;;21.40;;
11098;SDS011;12223;42.650;23.364;2023-01-01T07:40:43;25.58;;;21.73;;
11098;SDS011;12223;42.650;23.364;2023-01-01T07:43:11;29.30;;;24.35;;
11098;SDS011;12223;42.650;23.364;2023-01-01T07:45:38;25.10;;;22.48;;
11098;SDS011;12223;42.650;23.364;2023-01-01T07:48:06;25.42;;;21.85;;
11098;SDS011;12223;42.650;23.364;2023-01-01T07:50:37;23.65;;;21.25;;
11098;SDS011;12223;42.650;23.364;2023-01-01T07:53:03;19.98;;;17.88;;
11098;SDS011;12223;42.650;23.364;2023-01-01T07:55:30;21.35;;;18.08;;
11098;SDS011;12223;42.650;23.364;2023-01-01T07:57:58;23.98;;;20.48;;
11098;SDS011;12223;42.650;23.364;2023-01-01T08:00:27;24.65;;;20.92;;
11098;SDS011;12223;42.650;23.364;2023-01-01T08:02:54;28.88;;;25.00;;
11098;SDS011;12223;42.650;23.364;2023-01-01T08:05:21;35.72;;;28.63;;
11098;SDS011;12223;42.650;23.364;2023-01-01T08:07:48;39.15;;;30.67;;
11098;SDS011;12223;42.650;23.364;2023-01-01T08:10:16;28.52;;;24.95;;
11098;SDS011;12223;42.650;23.364;2023-01-01T08:12:45;43.92;;;33.67;;
11098;SDS011;12223;42.650;23.364;2023-01-01T08:15:12;42.65;;;34.28;;
11098;SDS011;12223;42.650;23.364;2023-01-01T08:17:41;48.95;;;36.92;;
11098;SDS011;12223;42.650;23.364;2023-01-01T08:20:08;42.22;;;34.65;;
11098;SDS011;12223;42.650;23.364;2023-01-01T08:22:35;49.90;;;39.05;;
11098;SDS011;12223;42.650;23.364;2023-01-01T08:25:02;54.22;;;41.85;;
11098;SDS011;12223;42.650;23.364;2023-01-01T08:27:30;55.65;;;44.70;;
11098;SDS011;12223;42.650;23.364;2023-01-01T08:29:56;63.50;;;48.53;;
11098;SDS011;12223;42.650;23.364;2023-01-01T08:32:23;64.80;;;46.53;;
11098;SDS011;12223;42.650;23.364;2023-01-01T08:34:51;64.83;;;47.13;;
11098;SDS011;12223;42.650;23.364;2023-01-01T08:37:18;67.97;;;47.93;;
11098;SDS011;12223;42.650;23.364;2023-01-01T08:39:47;71.97;;;49.90;;
11098;SDS011;12223;42.650;23.364;2023-01-01T08:42:14;70.83;;;50.77;;
11098;SDS011;12223;42.650;23.364;2023-01-01T08:44:41;79.17;;;59.03;;
11098;SDS011;12223;42.650;23.364;2023-01-01T08:47:14;82.03;;;73.30;;
11098;SDS011;12223;42.650;23.364;2023-01-01T08:49:42;75.83;;;67.33;;
11098;SDS011;12223;42.650;23.364;2023-01-01T08:52:10;89.70;;;80.50;;
11098;SDS011;12223;42.650;23.364;2023-01-01T08:54:37;97.13;;;87.40;;
11098;SDS011;12223;42.650;23.364;2023-01-01T08:57:04;79.73;;;52.37;;
11098;SDS011;12223;42.650;23.364;2023-01-01T08:59:31;76.57;;;52.40;;
11098;SDS011;12223;42.650;23.364;2023-01-01T09:01:58;77.17;;;53.77;;
11098;SDS011;12223;42.650;23.364;2023-01-01T09:04:25;77.53;;;53.47;;
11098;SDS011;12223;42.650;23.364;2023-01-01T09:06:52;67.43;;;53.20;;
11098;SDS011;12223;42.650;23.364;2023-01-01T09:09:20;72.63;;;56.03;;
11098;SDS011;12223;42.650;23.364;2023-01-01T09:11:48;70.60;;;56.07;;
11098;SDS011;12223;42.650;23.364;2023-01-01T09:14:16;67.47;;;52.43;;
11098;SDS011;12223;42.650;23.364;2023-01-01T09:16:43;113.00;;;103.33;;
11098;SDS011;12223;42.650;23.364;2023-01-01T09:19:09;101.73;;;92.57;;
11098;SDS011;12223;42.650;23.364;2023-01-01T09:21:36;68.57;;;53.50;;
11098;SDS011;12223;42.650;23.364;2023-01-01T09:24:03;69.10;;;50.37;;
11098;SDS011;12223;42.650;23.364;2023-01-01T09:26:32;64.47;;;47.73;;
11098;SDS011;12223;42.650;23.364;2023-01-01T09:28:58;64.00;;;46.63;;
11098;SDS011;12223;42.650;23.364;2023-01-01T09:31:25;61.37;;;45.40;;
11098;SDS011;12223;42.650;23.364;2023-01-01T09:33:52;64.40;;;44.67;;
11098;SDS011;12223;42.650;23.364;2023-01-01T09:36:25;64.17;;;51.97;;
11098;SDS011;12223;42.650;23.364;2023-01-01T09:38:54;65.10;;;50.90;;
11098;SDS011;12223;42.650;23.364;2023-01-01T09:41:24;61.00;;;45.63;;
11098;SDS011;12223;42.650;23.364;2023-01-01T09:44:05;61.17;;;44.83;;
11098;SDS011;12223;42.650;23.364;2023-01-01T09:46:41;64.37;;;44.33;;
11098;SDS011;12223;42.650;23.364;2023-01-01T09:49:09;62.53;;;44.00;;
11098;SDS011;12223;42.650;23.364;2023-01-01T09:51:40;59.73;;;46.10;;
11098;SDS011;12223;42.650;23.364;2023-01-01T09:54:10;58.83;;;45.73;;
11098;SDS011;12223;42.650;23.364;2023-01-01T09:56:44;57.33;;;43.17;;
11098;SDS011;12223;42.650;23.364;2023-01-01T09:59:12;62.73;;;45.17;;
11098;SDS011;12223;42.650;23.364;2023-01-01T10:01:41;59.83;;;44.80;;
11098;SDS011;12223;42.650;23.364;2023-01-01T10:04:22;58.57;;;43.40;;
11098;SDS011;12223;42.650;23.364;2023-01-01T10:07:02;62.63;;;45.80;;
11098;SDS011;12223;42.650;23.364;2023-01-01T10:09:39;63.93;;;46.40;;
11098;SDS011;12223;42.650;23.364;2023-01-01T10:12:15;63.97;;;50.57;;
11098;SDS011;12223;42.650;23.364;2023-01-01T10:14:49;73.67;;;65.93;;
11098;SDS011;12223;42.650;23.364;2023-01-01T10:17:22;62.00;;;52.00;;
11098;SDS011;12223;42.650;23.364;2023-01-01T10:19:57;63.87;;;45.63;;
11098;SDS011;12223;42.650;23.364;2023-01-01T10:22:30;60.57;;;49.40;;
11098;SDS011;12223;42.650;23.364;2023-01-01T10:25:03;60.03;;;47.47;;
11098;SDS011;12223;42.650;23.364;2023-01-01T10:27:34;54.47;;;42.10;;
11098;SDS011;12223;42.650;23.364;2023-01-01T10:30:11;54.77;;;47.00;;
11098;SDS011;12223;42.650;23.364;2023-01-01T10:32:40;58.43;;;44.83;;
11098;SDS011;12223;42.650;23.364;2023-01-01T10:35:11;55.13;;;41.47;;
11098;SDS011;12223;42.650;23.364;2023-01-01T10:37:39;53.93;;;41.13;;
11098;SDS011;12223;42.650;23.364;2023-01-01T10:40:14;55.83;;;38.10;;
11098;SDS011;12223;42.650;23.364;2023-01-01T10:42:44;55.87;;;39.73;;
11098;SDS011;12223;42.650;23.364;2023-01-01T10:45:16;52.97;;;39.70;;
11098;SDS011;12223;42.650;23.364;2023-01-01T10:50:39;47.80;;;36.33;;
11098;SDS011;12223;42.650;23.364;2023-01-01T10:53:17;53.20;;;38.07;;
11098;SDS011;12223;42.650;23.364;2023-01-01T10:55:47;47.43;;;36.63;;
11098;SDS011;12223;42.650;23.364;2023-01-01T10:58:24;52.07;;;37.50;;
11098;SDS011;12223;42.650;23.364;2023-01-01T11:01:01;52.57;;;36.30;;
11098;SDS011;12223;42.650;23.364;2023-01-01T11:03:29;49.30;;;35.00;;
11098;SDS011;12223;42.650;23.364;2023-01-01T11:06:03;52.17;;;36.23;;
11098;SDS011;12223;42.650;23.364;2023-01-01T11:08:36;43.90;;;32.33;;
11098;SDS011;12223;42.650;23.364;2023-01-01T11:11:06;49.67;;;35.73;;
11098;SDS011;12223;42.650;23.364;2023-01-01T11:13:46;44.93;;;34.23;;
11098;SDS011;12223;42.650;23.364;2023-01-01T11:16:15;45.97;;;32.40;;
11098;SDS011;12223;42.650;23.364;2023-01-01T11:18:42;44.87;;;32.40;;
11098;SDS011;12223;42.650;23.364;2023-01-01T11:21:09;43.83;;;31.33;;
11098;SDS011;12223;42.650;23.364;2023-01-01T11:23:44;41.07;;;31.27;;
11098;SDS011;12223;42.650;23.364;2023-01-01T11:26:18;43.63;;;31.67;;
11098;SDS011;12223;42.650;23.364;2023-01-01T11:28:57;41.50;;;30.43;;
11098;SDS011;12223;42.650;23.364;2023-01-01T11:31:27;43.53;;;30.10;;
11098;SDS011;12223;42.650;23.364;2023-01-01T11:33:55;42.87;;;30.07;;
11098;SDS011;12223;42.650;23.364;2023-01-01T11:36:23;47.40;;;32.77;;
11098;SDS011;12223;42.650;23.364;2023-01-01T11:39:02;41.20;;;29.73;;
11098;SDS011;12223;42.650;23.364;2023-01-01T11:41:39;45.60;;;31.07;;
11098;SDS011;12223;42.650;23.364;2023-01-01T11:44:08;41.57;;;28.53;;
11098;SDS011;12223;42.650;23.364;2023-01-01T11:46:38;37.93;;;31.67;;
11098;SDS011;12223;42.650;23.364;2023-01-01T11:49:11;38.23;;;28.80;;
11098;SDS011;12223;42.650;23.364;2023-01-01T11:51:39;41.37;;;27.20;;
11098;SDS011;12223;42.650;23.364;2023-01-01T11:54:10;36.77;;;29.17;;
11098;SDS011;12223;42.650;23.364;2023-01-01T11:56:48;38.03;;;28.23;;
11098;SDS011;12223;42.650;23.364;2023-01-01T11:59:19;43.30;;;29.23;;
11098;SDS011;12223;42.650;23.364;2023-01-01T12:01:52;38.20;;;27.37;;
11098;SDS011;12223;42.650;23.364;2023-01-01T12:04:24;38.53;;;27.97;;
11098;SDS011;12223;42.650;23.364;2023-01-01T12:06:56;37.10;;;26.57;;
11098;SDS011;12223;42.650;23.364;2023-01-01T12:09:29;40.50;;;28.57;;
11098;SDS011;12223;42.650;23.364;2023-01-01T12:12:05;40.07;;;28.90;;
11098;SDS011;12223;42.650;23.364;2023-01-01T12:14:39;38.93;;;30.27;;
11098;SDS011;12223;42.650;23.364;2023-01-01T12:17:14;34.03;;;27.33;;
11098;SDS011;12223;42.650;23.364;2023-01-01T12:19:47;34.27;;;29.57;;
11098;SDS011;12223;42.650;23.364;2023-01-01T12:22:21;34.93;;;28.80;;
11098;SDS011;12223;42.650;23.364;2023-01-01T12:24:48;44.97;;;40.37;;
11098;SDS011;12223;42.650;23.364;2023-01-01T12:27:18;40.80;;;33.83;;
11098;SDS011;12223;42.650;23.364;2023-01-01T12:30:00;37.90;;;32.30;;
11098;SDS011;12223;42.650;23.364;2023-01-01T12:32:36;35.27;;;31.57;;
11098;SDS011;12223;42.650;23.364;2023-01-01T12:35:16;34.07;;;30.40;;
11098;SDS011;12223;42.650;23.364;2023-01-01T12:37:55;35.70;;;27.83;;
11098;SDS011;12223;42.650;23.364;2023-01-01T12:40:41;32.20;;;25.33;;
11098;SDS011;12223;42.650;23.364;2023-01-01T12:43:16;33.63;;;27.07;;
11098;SDS011;12223;42.650;23.364;2023-01-01T12:45:50;31.30;;;23.87;;
11098;SDS011;12223;42.650;23.364;2023-01-01T12:48:32;34.63;;;26.93;;
11098;SDS011;12223;42.650;23.364;2023-01-01T12:51:15;45.23;;;41.03;;
11098;SDS011;12223;42.650;23.364;2023-01-01T12:53:53;44.17;;;39.63;;
11098;SDS011;12223;42.650;23.364;2023-01-01T12:56:27;37.03;;;30.37;;
11098;SDS011;12223;42.650;23.364;2023-01-01T12:58:59;33.77;;;26.77;;
11098;SDS011;12223;42.650;23.364;2023-01-01T13:01:31;37.67;;;31.83;;
11098;SDS011;12223;42.650;23.364;2023-01-01T13:04:01;34.10;;;28.13;;
11098;SDS011;12223;42.650;23.364;2023-01-01T13:06:32;35.53;;;28.47;;
11098;SDS011;12223;42.650;23.364;2023-01-01T13:09:04;31.67;;;28.23;;
11098;SDS011;12223;42.650;23.364;2023-01-01T13:11:36;35.53;;;28.17;;
11098;SDS011;12223;42.650;23.364;2023-01-01T13:14:05;37.97;;;28.50;;
11098;SDS011;12223;42.650;23.364;2023-01-01T13:16:33;34.90;;;25.50;;
11098;SDS011;12223;42.650;23.364;2023-01-01T13:19:04;39.17;;;25.27;;
11098;SDS011;12223;42.650;23.364;2023-01-01T13:21:31;37.10;;;26.20;;
11098;SDS011;12223;42.650;23.364;2023-01-01T13:24:04;34.40;;;24.37;;
11098;SDS011;12223;42.650;23.364;2023-01-01T13:26:43;33.20;;;24.43;;
11098;SDS011;12223;42.650;23.364;2023-01-01T13:32:09;35.67;;;25.47;;
11098;SDS011;12223;42.650;23.364;2023-01-01T13:37:46;33.63;;;25.10;;
11098;SDS011;12223;42.650;23.364;2023-01-01T13:43:28;35.03;;;24.40;;
11098;SDS011;12223;42.650;23.364;2023-01-01T13:45:56;31.30;;;23.60;;
11098;SDS011;12223;42.650;23.364;2023-01-01T13:51:33;28.27;;;22.40;;
11098;SDS011;12223;42.650;23.364;2023-01-01T13:54:23;32.60;;;22.57;;
11098;SDS011;12223;42.650;23.364;2023-01-01T13:57:12;33.53;;;22.93;;
11098;SDS011;12223;42.650;23.364;2023-01-01T13:59:59;29.33;;;22.43;;
11098;SDS011;12223;42.650;23.364;2023-01-01T14:02:41;33.70;;;23.10;;
11098;SDS011;12223;42.650;23.364;2023-01-01T14:05:13;31.07;;;23.33;;
11098;SDS011;12223;42.650;23.364;2023-01-01T14:07:45;31.67;;;22.53;;
11098;SDS011;12223;42.650;23.364;2023-01-01T14:10:16;30.83;;;24.40;;
11098;SDS011;12223;42.650;23.364;2023-01-01T14:12:45;31.03;;;24.60;;
11098;SDS011;12223;42.650;23.364;2023-01-01T14:15:15;33.60;;;24.43;;
11098;SDS011;12223;42.650;23.364;2023-01-01T14:17:48;32.40;;;23.93;;
11098;SDS011;12223;42.650;23.364;2023-01-01T14:20:16;35.67;;;24.50;;
11098;SDS011;12223;42.650;23.364;2023-01-01T14:22:46;34.13;;;25.13;;
11098;SDS011;12223;42.650;23.364;2023-01-01T14:25:15;37.57;;;25.17;;
11098;SDS011;12223;42.650;23.364;2023-01-01T14:27:45;37.37;;;24.50;;
11098;SDS011;12223;42.650;23.364;2023-01-01T14:30:15;40.90;;;27.43;;
11098;SDS011;12223;42.650;23.364;2023-01-01T14:32:43;67.37;;;61.93;;
11098;SDS011;12223;42.650;23.364;2023-01-01T14:35:12;50.33;;;45.50;;
11098;SDS011;12223;42.650;23.364;2023-01-01T14:37:40;42.17;;;29.83;;